createdAt,value
2018-03-20T00:01:27.574Z,44.60
2018-03-20T00:03:31.488Z,44.60
2018-03-20T00:05:34.665Z,44.70
2018-03-20T00:07:38.048Z,44.70
2018-03-20T00:09:41.970Z,44.40
2018-03-20T00:11:45.881Z,44.40
2018-03-20T00:13:49.058Z,44.40
2018-03-20T00:15:52.209Z,44.40
2018-03-20T00:17:56.142Z,44.80
2018-03-20T00:20:01.200Z,44.70
2018-03-20T00:22:04.348Z,44.70
2018-03-20T00:24:07.513Z,44.70
2018-03-20T00:26:10.652Z,44.70
2018-03-20T00:28:13.800Z,44.70
2018-03-20T00:30:16.980Z,44.70
2018-03-20T00:32:20.149Z,45.40
2018-03-20T00:34:23.557Z,44.80
2018-03-20T00:36:26.726Z,44.70
2018-03-20T00:38:29.873Z,44.90
2018-03-20T00:40:33.025Z,44.80
2018-03-20T00:42:36.192Z,44.90
2018-03-20T00:44:39.641Z,45.10
2018-03-20T00:46:42.794Z,45.20
2018-03-20T00:48:46.714Z,45.20
2018-03-20T00:50:50.660Z,45.20
2018-03-20T00:52:53.820Z,45.20
2018-03-20T00:54:56.992Z,45.10
2018-03-20T00:57:00.149Z,45.00
2018-03-20T00:59:04.106Z,45.00
2018-03-20T01:01:07.252Z,45.00
2018-03-20T01:03:10.629Z,45.00
2018-03-20T01:05:13.772Z,45.10
2018-03-20T01:07:16.922Z,45.10
2018-03-20T01:09:20.879Z,45.20
2018-03-20T01:11:24.030Z,45.20
2018-03-20T01:13:27.390Z,45.00
2018-03-20T01:15:30.536Z,45.00
2018-03-20T01:17:33.738Z,45.10
2018-03-20T01:19:36.879Z,45.30
2018-03-20T01:21:40.052Z,45.40
2018-03-20T01:23:43.197Z,45.50
2018-03-20T01:25:46.373Z,45.60
2018-03-20T01:27:50.314Z,45.60
2018-03-20T01:29:53.477Z,45.60
2018-03-20T01:31:56.632Z,45.60
2018-03-20T01:33:59.806Z,45.60
2018-03-20T01:36:04.273Z,45.70
2018-03-20T01:38:07.424Z,45.70
2018-03-20T01:40:10.614Z,45.80
2018-03-20T01:42:14.545Z,45.80
2018-03-20T01:44:18.571Z,45.80
2018-03-20T01:46:23.643Z,45.80
2018-03-20T01:48:26.794Z,45.80
2018-03-20T01:50:29.986Z,45.80
2018-03-20T01:52:33.139Z,45.90
2018-03-20T01:54:37.053Z,46.20
2018-03-20T01:56:40.241Z,46.10
2018-03-20T02:00:50.788Z,46.10
2018-03-20T02:02:53.982Z,46.40
2018-03-20T02:04:58.638Z,46.20
2018-03-20T02:07:02.576Z,46.10
2018-03-20T02:09:05.717Z,46.10
2018-03-20T02:11:08.864Z,46.10
2018-03-20T02:13:13.028Z,46.30
2018-03-20T02:15:16.170Z,46.20
2018-03-20T02:17:19.337Z,46.30
2018-03-20T02:19:22.504Z,46.40
2018-03-20T02:21:25.657Z,46.30
2018-03-20T02:23:28.819Z,46.40
2018-03-20T02:25:33.286Z,46.40
2018-03-20T02:27:38.141Z,46.70
2018-03-20T02:29:43.394Z,46.70
2018-03-20T02:31:48.332Z,46.80
2018-03-20T02:33:53.630Z,47.00
2018-03-20T02:35:56.825Z,46.90
2018-03-20T02:37:59.999Z,47.00
2018-03-20T02:40:03.949Z,47.30
2018-03-20T02:42:07.135Z,47.30
2018-03-20T02:44:11.082Z,47.50
2018-03-20T02:46:20.822Z,47.50
2018-03-20T02:48:26.134Z,47.60
2018-03-20T02:50:29.325Z,47.60
2018-03-20T02:52:32.473Z,47.80
2018-03-20T02:54:37.142Z,48.00
2018-03-20T02:56:41.257Z,47.90
2018-03-20T02:58:48.242Z,48.00
2018-03-20T03:00:52.768Z,48.00
2018-03-20T03:02:56.030Z,48.00
2018-03-20T03:04:59.214Z,48.20
2018-03-20T03:07:03.158Z,48.30
2018-03-20T03:09:06.334Z,48.30
2018-03-20T03:11:10.282Z,48.50
2018-03-20T03:13:13.469Z,48.50
2018-03-20T03:15:16.619Z,48.60
2018-03-20T03:17:19.805Z,48.80
2018-03-20T03:19:23.955Z,49.20
2018-03-20T03:21:27.122Z,49.20
2018-03-20T03:23:30.274Z,49.20
2018-03-20T03:25:33.557Z,49.20
2018-03-20T03:27:37.495Z,49.10
2018-03-20T03:29:40.650Z,49.00
2018-03-20T03:31:43.829Z,49.20
2018-03-20T03:33:46.986Z,49.20
2018-03-20T03:35:50.332Z,49.30
2018-03-20T03:37:53.473Z,49.20
2018-03-20T03:39:56.628Z,49.20
2018-03-20T03:42:00.574Z,49.30
2018-03-20T03:44:03.720Z,49.30
2018-03-20T03:46:07.288Z,49.20
2018-03-20T03:48:10.470Z,49.40
2018-03-20T03:50:15.125Z,49.50
2018-03-20T03:52:19.766Z,49.50
2018-03-20T03:54:23.409Z,49.50
2018-03-20T03:56:29.304Z,49.40
2018-03-20T03:58:33.212Z,49.40
2018-03-20T04:00:37.117Z,49.50
2018-03-20T04:02:40.918Z,49.50
2018-03-20T04:04:44.121Z,49.50
2018-03-20T04:06:48.082Z,50.00
2018-03-20T04:08:51.262Z,49.30
2018-03-20T04:10:55.182Z,49.30
2018-03-20T04:12:59.129Z,49.90
2018-03-20T04:15:02.293Z,49.20
2018-03-20T04:17:05.445Z,49.20
2018-03-20T04:19:09.121Z,49.30
2018-03-20T04:21:12.272Z,49.30
2018-03-20T04:23:15.453Z,49.30
2018-03-20T04:25:19.117Z,49.10
2018-03-20T04:27:24.037Z,49.10
2018-03-20T04:29:27.320Z,49.10
2018-03-20T04:31:30.812Z,49.10
2018-03-20T04:33:33.969Z,49.10
2018-03-20T04:35:37.914Z,49.40
2018-03-20T04:37:43.030Z,49.40
2018-03-20T04:39:47.660Z,49.50
2018-03-20T04:41:51.068Z,49.60
2018-03-20T04:43:54.229Z,49.80
2018-03-20T04:45:57.372Z,50.00
2018-03-20T04:48:00.544Z,50.10
2018-03-20T04:50:03.710Z,50.30
2018-03-20T04:52:07.626Z,51.40
2018-03-20T04:54:11.543Z,50.80
2018-03-20T04:56:14.688Z,51.00
2018-03-20T04:58:18.597Z,51.30
2018-03-20T05:00:22.550Z,51.80
2018-03-20T05:02:26.113Z,51.70
2018-03-20T05:04:30.597Z,51.70
2018-03-20T05:06:36.123Z,52.10
2018-03-20T05:08:40.474Z,52.30
2018-03-20T05:10:46.081Z,52.90
2018-03-20T05:12:50.823Z,52.80
2018-03-20T05:14:55.919Z,53.10
2018-03-20T05:17:01.380Z,53.40
2018-03-20T05:19:06.186Z,53.60
2018-03-20T05:21:14.893Z,53.80
2018-03-20T05:23:34.700Z,53.90
2018-03-20T05:25:37.889Z,54.20
2018-03-20T05:27:41.045Z,54.80
2018-03-20T05:29:44.218Z,54.20
2018-03-20T05:31:47.388Z,54.20
2018-03-20T05:33:52.423Z,55.20
2018-03-20T05:35:55.610Z,54.60
2018-03-20T05:37:58.764Z,54.70
2018-03-20T05:40:02.709Z,55.00
2018-03-20T05:42:05.857Z,55.00
2018-03-20T05:44:09.029Z,55.00
2018-03-20T05:46:12.840Z,55.00
2018-03-20T05:50:57.936Z,55.30
2018-03-20T05:53:01.084Z,55.50
2018-03-20T05:55:04.358Z,55.60
2018-03-20T05:57:07.513Z,55.70
2018-03-20T05:59:10.677Z,55.80
2018-03-20T06:01:13.844Z,55.90
2018-03-20T06:03:16.989Z,56.00
2018-03-20T06:05:20.157Z,56.20
2018-03-20T06:07:24.077Z,56.40
2018-03-20T06:09:27.315Z,56.40
2018-03-20T06:11:31.248Z,56.60
2018-03-20T06:13:34.384Z,57.30
2018-03-20T06:15:37.549Z,56.80
2018-03-20T06:17:41.480Z,56.90
2018-03-20T06:19:45.385Z,56.90
2018-03-20T06:21:48.572Z,56.80
2018-03-20T06:23:51.714Z,56.80
2018-03-20T06:25:55.679Z,57.10
2018-03-20T06:27:58.860Z,57.20
2018-03-20T06:30:02.034Z,57.20
2018-03-20T06:32:05.988Z,57.20
2018-03-20T06:34:09.892Z,57.30
2018-03-20T06:36:14.934Z,57.40
2018-03-20T06:38:18.466Z,57.40
2018-03-20T06:40:22.394Z,56.60
2018-03-20T06:42:26.305Z,57.20
2018-03-20T06:44:31.038Z,57.20
2018-03-20T06:46:34.708Z,57.20
2018-03-20T06:48:37.856Z,57.20
2018-03-20T06:50:40.993Z,57.30
2018-03-20T06:52:46.360Z,57.40
2018-03-20T06:54:51.086Z,57.40
2018-03-20T06:56:55.626Z,57.40
2018-03-20T06:58:59.443Z,57.40
2018-03-20T07:01:04.722Z,57.60
2018-03-20T07:03:08.009Z,57.60
2018-03-20T07:05:11.180Z,57.60
2018-03-20T07:07:15.385Z,57.70
2018-03-20T07:09:19.017Z,57.70
2018-03-20T07:11:22.750Z,57.70
2018-03-20T07:13:27.280Z,57.90
2018-03-20T07:15:30.416Z,57.90
2018-03-20T07:17:33.644Z,58.60
2018-03-20T07:19:37.582Z,57.90
2018-03-20T07:21:41.517Z,57.90
2018-03-20T07:23:45.466Z,58.00
2018-03-20T07:25:48.636Z,57.90
2018-03-20T07:27:52.575Z,58.60
2018-03-20T07:29:59.050Z,58.40
2018-03-20T07:32:02.313Z,58.40
2018-03-20T07:34:05.456Z,58.50
2018-03-20T07:36:10.061Z,58.60
2018-03-20T07:38:14.625Z,58.70
2018-03-20T07:40:19.242Z,58.70
2018-03-20T07:42:23.848Z,58.80
2018-03-20T07:44:27.122Z,58.90
2018-03-20T07:46:30.309Z,59.00
2018-03-20T07:48:33.451Z,59.10
2018-03-20T07:50:37.357Z,59.10
2018-03-20T07:52:41.298Z,59.10
2018-03-20T07:54:45.209Z,59.40
2018-03-20T07:56:48.392Z,59.10
2018-03-20T07:58:51.574Z,59.20
2018-03-20T08:00:54.913Z,59.20
2018-03-20T08:02:59.208Z,59.20
2018-03-20T08:05:02.431Z,59.90
2018-03-20T08:07:05.614Z,59.30
2018-03-20T08:09:10.385Z,59.40
2018-03-20T08:11:15.180Z,59.30
2018-03-20T08:13:18.832Z,59.40
2018-03-20T08:15:22.333Z,59.50
2018-03-20T08:17:26.273Z,59.60
2018-03-20T08:19:29.442Z,59.60
2018-03-20T08:21:32.622Z,59.80
2018-03-20T08:23:36.920Z,59.90
2018-03-20T08:25:41.598Z,60.20
2018-03-20T08:27:46.997Z,60.50
2018-03-20T08:29:51.823Z,60.40
2018-03-20T08:31:56.675Z,61.00
2018-03-20T08:33:59.954Z,61.20
2018-03-20T08:36:03.972Z,61.50
2018-03-20T08:38:07.145Z,61.60
2018-03-20T08:40:12.185Z,61.90
2018-03-20T08:42:16.442Z,61.90
2018-03-20T08:44:19.621Z,62.00
2018-03-20T08:46:23.619Z,62.10
2018-03-20T08:48:28.356Z,62.30
2018-03-20T08:50:33.677Z,62.70
2018-03-20T08:52:37.341Z,62.70
2018-03-20T08:54:40.705Z,62.60
2018-03-20T08:56:43.899Z,62.70
2018-03-20T08:58:47.847Z,63.10
2018-03-20T09:00:51.024Z,63.00
2018-03-20T09:02:55.694Z,63.20
2018-03-20T09:05:01.023Z,63.40
2018-03-20T09:07:05.075Z,63.80
2018-03-20T09:09:10.093Z,63.80
2018-03-20T09:11:15.744Z,63.80
2018-03-20T09:13:19.043Z,63.80
2018-03-20T09:15:22.220Z,63.80
2018-03-20T09:17:25.400Z,63.80
2018-03-20T09:19:29.344Z,63.80
2018-03-20T09:21:32.525Z,63.80
2018-03-20T09:23:35.701Z,63.70
2018-03-20T09:25:38.884Z,63.10
2018-03-20T09:27:42.090Z,63.70
2018-03-20T09:29:46.189Z,63.60
2018-03-20T09:31:50.148Z,63.60
2018-03-20T09:33:53.458Z,63.50
2018-03-20T09:35:56.649Z,63.40
2018-03-20T09:37:59.829Z,63.40
2018-03-20T09:40:03.009Z,63.40
2018-03-20T09:42:06.173Z,63.40
2018-03-20T09:44:09.367Z,63.40
2018-03-20T09:46:13.305Z,63.40
2018-03-20T09:48:16.499Z,63.40
2018-03-20T09:50:20.564Z,63.10
2018-03-20T09:52:23.737Z,63.10
2018-03-20T09:54:27.676Z,62.40
2018-03-20T09:56:30.904Z,62.30
2018-03-20T09:58:34.069Z,62.00
2018-03-20T10:00:38.002Z,62.20
2018-03-20T10:02:41.932Z,62.30
2018-03-20T10:04:46.865Z,62.10
2018-03-20T10:06:50.036Z,62.10
2018-03-20T10:08:53.210Z,61.60
2018-03-20T10:10:57.529Z,60.90
2018-03-20T10:13:02.855Z,59.60
2018-03-20T10:15:06.868Z,59.60
2018-03-20T10:17:12.657Z,59.20
2018-03-20T10:19:21.595Z,58.70
2018-03-20T10:21:25.514Z,58.20
2018-03-20T10:23:30.190Z,56.50
2018-03-20T10:25:34.123Z,55.70
2018-03-20T10:27:37.293Z,55.60
2018-03-20T10:29:40.458Z,55.30
2018-03-20T10:31:43.639Z,55.20
2018-03-20T10:33:48.069Z,54.70
2018-03-20T10:35:52.005Z,54.70
2018-03-20T10:37:55.175Z,54.70
2018-03-20T10:39:59.117Z,54.70
2018-03-20T10:42:03.073Z,54.80
2018-03-20T10:44:07.118Z,54.50
2018-03-20T10:46:10.607Z,54.40
2018-03-20T10:48:13.793Z,54.40
2018-03-20T10:50:18.459Z,53.20
2018-03-20T10:52:21.635Z,53.70
2018-03-20T10:54:25.565Z,53.60
2018-03-20T10:56:30.520Z,53.50
2018-03-20T10:58:34.457Z,53.20
2018-03-20T11:00:38.393Z,52.60
2018-03-20T11:02:47.192Z,52.60
2018-03-20T11:04:51.869Z,51.10
2018-03-20T11:06:55.066Z,51.10
2018-03-20T11:08:59.760Z,50.90
2018-03-20T11:11:02.939Z,50.80
2018-03-20T11:13:06.115Z,50.60
2018-03-20T11:15:10.645Z,50.30
2018-03-20T11:17:13.809Z,49.90
2018-03-20T11:19:16.980Z,49.40
2018-03-20T11:21:20.917Z,48.50
2018-03-20T11:23:24.104Z,48.40
2018-03-20T11:25:28.141Z,48.30
2018-03-20T11:27:32.116Z,47.60
2018-03-20T11:29:35.489Z,47.60
2018-03-20T11:31:38.659Z,47.40
2018-03-20T11:33:41.824Z,47.10
2018-03-20T11:35:44.986Z,46.60
2018-03-20T11:37:48.149Z,46.50
2018-03-20T11:39:51.318Z,46.50
2018-03-20T11:41:55.262Z,46.00
2018-03-20T11:43:58.480Z,45.80
2018-03-20T11:46:02.390Z,44.90
2018-03-20T11:48:05.561Z,44.80
2018-03-20T11:50:08.997Z,44.80
2018-03-20T11:52:12.933Z,44.10
2018-03-20T11:54:16.108Z,44.00
2018-03-20T11:56:19.292Z,43.60
2018-03-20T11:58:22.461Z,42.70
2018-03-20T12:00:26.549Z,42.80
2018-03-20T12:02:29.714Z,43.00
2018-03-20T12:04:33.291Z,43.20
2018-03-20T12:06:37.650Z,42.80
2018-03-20T12:08:51.681Z,42.20
2018-03-20T12:10:58.001Z,41.90
2018-03-20T12:13:02.918Z,41.50
2018-03-20T12:15:06.137Z,41.40
2018-03-20T12:17:09.321Z,41.10
2018-03-20T12:19:13.713Z,40.80
2018-03-20T12:21:16.892Z,40.50
2018-03-20T12:23:20.820Z,39.90
2018-03-20T12:25:24.009Z,39.80
2018-03-20T12:27:27.948Z,39.30
2018-03-20T12:29:33.209Z,39.30
2018-03-20T12:31:36.449Z,39.20
2018-03-20T12:33:39.641Z,38.80
2018-03-20T12:35:42.815Z,38.40
2018-03-20T12:37:46.783Z,38.70
2018-03-20T12:39:49.941Z,38.60
2018-03-20T12:41:53.990Z,38.50
2018-03-20T12:43:57.927Z,37.50
2018-03-20T12:46:01.117Z,37.40
2018-03-20T12:48:05.064Z,37.20
2018-03-20T12:50:08.249Z,37.10
2018-03-20T12:52:13.301Z,37.10
2018-03-20T12:54:17.244Z,36.60
2018-03-20T12:56:20.434Z,36.50
2018-03-20T12:58:24.411Z,35.90
2018-03-20T13:00:27.596Z,35.80
2018-03-20T13:02:30.765Z,35.80
2018-03-20T13:04:33.988Z,35.10
2018-03-20T13:06:37.134Z,35.40
2018-03-20T13:08:40.313Z,35.20
2018-03-20T13:10:43.501Z,35.00
2018-03-20T13:12:47.449Z,34.90
2018-03-20T13:14:50.737Z,34.90
2018-03-20T13:16:54.673Z,34.60
2018-03-20T13:18:58.613Z,33.30
2018-03-20T13:21:01.786Z,33.30
2018-03-20T13:23:05.732Z,33.10
2018-03-20T13:25:09.684Z,32.90
2018-03-20T13:27:12.981Z,32.70
2018-03-20T13:29:16.294Z,32.40
2018-03-20T13:31:19.469Z,32.40
2018-03-20T13:33:22.649Z,31.40
2018-03-20T13:35:25.853Z,31.70
2018-03-20T13:37:29.064Z,31.50
2018-03-20T13:39:32.245Z,31.40
2018-03-20T13:41:35.445Z,31.20
2018-03-20T13:43:38.621Z,30.70
2018-03-20T13:45:41.796Z,30.60
2018-03-20T13:47:45.017Z,30.50
2018-03-20T13:49:48.484Z,30.50
2018-03-20T13:51:52.817Z,30.80
2018-03-20T13:53:56.021Z,30.70
2018-03-20T13:55:59.966Z,30.00
2018-03-20T13:58:03.468Z,30.00
2018-03-20T14:00:07.030Z,30.00
2018-03-20T14:02:10.225Z,30.00
2018-03-20T14:04:13.400Z,30.00
2018-03-20T14:06:16.919Z,30.10
2018-03-20T14:08:20.089Z,30.10
2018-03-20T14:10:23.275Z,30.00
2018-03-20T14:12:26.736Z,29.40
2018-03-20T14:14:29.959Z,29.50
2018-03-20T14:16:33.129Z,29.20
2018-03-20T14:18:36.311Z,29.50
2018-03-20T14:20:39.504Z,29.30
2018-03-20T14:22:42.677Z,29.40
2018-03-20T14:24:46.622Z,29.20
2018-03-20T14:26:50.120Z,29.10
2018-03-20T14:28:53.400Z,29.10
2018-03-20T14:30:56.586Z,28.70
2018-03-20T14:32:59.772Z,29.30
2018-03-20T14:35:03.119Z,29.20
2018-03-20T14:37:06.306Z,29.10
2018-03-20T14:39:09.475Z,29.20
2018-03-20T14:41:13.416Z,29.20
2018-03-20T14:43:16.596Z,29.20
2018-03-20T14:45:20.533Z,29.30
2018-03-20T14:47:24.478Z,29.30
2018-03-20T14:49:27.771Z,29.20
2018-03-20T14:51:32.236Z,29.10
2018-03-20T14:53:35.672Z,28.90
2018-03-20T14:55:38.938Z,29.20
2018-03-20T14:57:42.881Z,29.20
2018-03-20T14:59:46.190Z,29.10
2018-03-20T15:01:49.445Z,28.90
2018-03-20T15:03:52.701Z,28.80
2018-03-20T15:05:57.770Z,28.90
2018-03-20T15:08:00.949Z,28.80
2018-03-20T15:10:04.901Z,28.40
2018-03-20T15:12:08.085Z,28.40
2018-03-20T15:14:12.032Z,28.70
2018-03-20T15:16:15.208Z,28.70
2018-03-20T15:18:19.160Z,28.20
2018-03-20T15:20:23.901Z,28.10
2018-03-20T15:22:27.082Z,28.60
2018-03-20T15:24:31.044Z,29.00
2018-03-20T15:26:34.225Z,28.70
2018-03-20T15:28:37.701Z,28.80
2018-03-20T15:30:40.872Z,29.00
2018-03-20T15:32:44.183Z,29.50
2018-03-20T15:34:47.361Z,28.90
2018-03-20T15:36:51.312Z,28.60
2018-03-20T15:38:54.538Z,28.50
2018-03-20T15:40:58.064Z,28.70
2018-03-20T15:43:01.238Z,28.70
2018-03-20T15:45:05.180Z,28.70
2018-03-20T15:47:08.352Z,28.60
2018-03-20T15:49:11.572Z,28.60
2018-03-20T15:51:15.519Z,28.60
2018-03-20T15:53:18.741Z,28.50
2018-03-20T15:55:22.019Z,28.60
2018-03-20T15:57:25.466Z,28.50
2018-03-20T15:59:28.633Z,28.50
2018-03-20T16:01:32.581Z,28.60
2018-03-20T16:03:35.794Z,28.50
2018-03-20T16:05:38.979Z,29.10
2018-03-20T16:07:42.924Z,29.50
2018-03-20T16:09:46.222Z,29.40
2018-03-20T16:11:49.445Z,29.40
2018-03-20T16:13:52.629Z,29.20
2018-03-20T16:15:55.795Z,29.00
2018-03-20T16:17:59.093Z,29.10
2018-03-20T16:20:02.485Z,29.10
2018-03-20T16:22:05.668Z,29.00
2018-03-20T16:24:08.842Z,28.90
2018-03-20T16:26:12.021Z,28.90
2018-03-20T16:28:15.213Z,29.10
2018-03-20T16:30:19.752Z,29.00
2018-03-20T16:32:23.703Z,29.40
2018-03-20T16:34:26.875Z,29.30
2018-03-20T16:36:30.869Z,29.50
2018-03-20T16:38:34.058Z,29.40
2018-03-20T16:40:37.528Z,30.20
2018-03-20T16:42:40.868Z,29.70
2018-03-20T16:44:44.047Z,29.80
2018-03-20T16:46:48.249Z,30.20
2018-03-20T16:48:52.233Z,30.30
2018-03-20T16:50:55.736Z,30.30
2018-03-20T16:53:00.904Z,30.90
2018-03-20T16:55:04.085Z,30.90
2018-03-20T16:57:08.025Z,30.70
2018-03-20T16:59:11.212Z,30.60
2018-03-20T17:01:15.157Z,31.00
2018-03-20T17:03:18.337Z,30.80
2018-03-20T17:05:21.509Z,30.80
2018-03-20T17:07:24.701Z,31.10
2018-03-20T17:09:27.882Z,31.40
2018-03-20T17:11:31.829Z,31.90
2018-03-20T17:13:34.997Z,31.80
2018-03-20T17:15:38.929Z,32.40
2018-03-20T17:17:42.907Z,32.60
2018-03-20T17:19:46.086Z,32.50
2018-03-20T17:21:49.585Z,32.60
2018-03-20T17:23:53.049Z,32.70
2018-03-20T17:25:56.221Z,32.80
2018-03-20T17:27:59.504Z,32.70
2018-03-20T17:30:02.681Z,32.90
2018-03-20T17:32:05.885Z,33.20
2018-03-20T17:34:09.062Z,33.60
2018-03-20T17:36:12.662Z,34.60
2018-03-20T17:38:16.599Z,34.30
2018-03-20T17:40:19.769Z,34.30
2018-03-20T17:42:22.945Z,34.50
2018-03-20T17:44:26.117Z,34.60
2018-03-20T17:46:30.053Z,35.20
2018-03-20T17:48:33.239Z,35.30
2018-03-20T17:50:37.185Z,35.50
2018-03-20T17:52:40.352Z,35.50
2018-03-20T17:54:43.546Z,35.80
2018-03-20T17:56:46.724Z,36.10
2018-03-20T17:58:49.888Z,36.30
2018-03-20T18:00:53.841Z,36.90
2018-03-20T18:02:57.030Z,36.90
2018-03-20T18:05:02.092Z,36.90
2018-03-20T18:07:06.024Z,37.10
2018-03-20T18:09:09.188Z,37.10
2018-03-20T18:11:12.357Z,37.10
2018-03-20T18:13:15.857Z,37.40
2018-03-20T18:15:19.055Z,37.60
2018-03-20T18:17:22.633Z,38.10
2018-03-20T18:19:26.002Z,38.10
2018-03-20T18:21:29.177Z,38.10
2018-03-20T18:23:32.401Z,38.40
2018-03-20T18:25:36.338Z,38.80
2018-03-20T18:27:39.513Z,38.80
2018-03-20T18:29:42.989Z,39.00
2018-03-20T18:31:46.157Z,39.40
2018-03-20T18:33:50.092Z,39.70
2018-03-20T18:35:53.264Z,39.80
2018-03-20T18:37:56.439Z,40.00
2018-03-20T18:39:59.622Z,40.20
2018-03-20T18:42:04.137Z,40.80
2018-03-20T18:44:08.085Z,41.00
2018-03-20T18:46:11.280Z,40.90
2018-03-20T18:50:50.553Z,41.10
2018-03-20T18:52:54.486Z,41.20
2018-03-20T18:54:57.678Z,41.40
2018-03-20T18:57:01.617Z,41.60
2018-03-20T18:59:05.034Z,42.20
2018-03-20T19:01:08.468Z,41.80
2018-03-20T19:03:11.652Z,41.90
2018-03-20T19:05:15.065Z,42.00
2018-03-20T19:07:19.010Z,42.30
2018-03-20T19:09:22.182Z,42.30
2018-03-20T19:11:26.116Z,42.40
2018-03-20T19:13:30.068Z,42.30
2018-03-20T19:15:33.272Z,42.30
2018-03-20T19:17:36.445Z,42.40
2018-03-20T19:19:40.380Z,42.50
2018-03-20T19:21:44.449Z,42.40
2018-03-20T19:23:47.633Z,42.50
2018-03-20T19:25:50.800Z,42.70
2018-03-20T19:27:54.750Z,42.90
2018-03-20T19:29:58.689Z,43.10
2018-03-20T19:32:02.018Z,43.10
2018-03-20T19:34:05.177Z,43.10
2018-03-20T19:36:08.353Z,43.00
2018-03-20T19:38:11.525Z,43.20
2018-03-20T19:40:14.694Z,43.30
2018-03-20T19:42:17.993Z,43.40
2018-03-20T19:44:21.170Z,43.70
2018-03-20T19:46:25.211Z,43.80
2018-03-20T19:48:28.395Z,43.70
2018-03-20T19:50:31.577Z,43.80
2018-03-20T19:52:35.618Z,44.20
2018-03-20T19:54:39.862Z,44.10
2018-03-20T19:56:43.046Z,44.20
2018-03-20T19:58:46.991Z,44.30
2018-03-20T20:00:50.173Z,44.30
2018-03-20T20:02:54.969Z,44.40
2018-03-20T20:04:58.497Z,44.70
2018-03-20T20:07:02.014Z,44.60
2018-03-20T20:09:05.938Z,44.70
2018-03-20T20:11:09.109Z,44.80
2018-03-20T20:13:12.277Z,44.80
2018-03-20T20:15:15.448Z,44.90
2018-03-20T20:17:18.828Z,45.00
2018-03-20T20:19:22.737Z,45.10
2018-03-20T20:21:26.314Z,45.10
2018-03-20T20:23:29.485Z,45.20
2018-03-20T20:25:32.663Z,45.20
2018-03-20T20:27:36.583Z,45.40
2018-03-20T20:29:39.773Z,45.40
2018-03-20T20:31:42.909Z,45.50
2018-03-20T20:33:46.682Z,45.50
2018-03-20T20:35:49.894Z,45.60
2018-03-20T20:37:53.037Z,45.70
2018-03-20T20:39:56.260Z,45.80
2018-03-20T20:42:00.209Z,46.10
2018-03-20T20:44:03.370Z,46.10
2018-03-20T20:46:07.534Z,46.10
2018-03-20T20:48:13.086Z,46.30
2018-03-20T20:50:17.460Z,46.20
2018-03-20T20:52:20.612Z,46.20
2018-03-20T20:54:25.302Z,46.40
2018-03-20T20:56:28.493Z,46.40
2018-03-20T20:58:32.402Z,46.50
2018-03-20T21:00:36.313Z,46.70
2018-03-20T21:02:40.992Z,46.80
2018-03-20T21:04:44.138Z,46.80
2018-03-20T21:06:47.277Z,46.80
2018-03-20T21:08:50.471Z,46.80
2018-03-20T21:10:53.649Z,47.20
2018-03-20T21:12:56.819Z,46.80
2018-03-20T21:15:00.769Z,46.90
2018-03-20T21:17:03.969Z,46.90
2018-03-20T21:19:07.113Z,47.00
2018-03-20T21:21:10.309Z,47.10
2018-03-20T21:23:13.465Z,47.20
2018-03-20T21:25:17.443Z,47.50
2018-03-20T21:27:20.585Z,47.50
2018-03-20T21:29:23.731Z,47.70
2018-03-20T21:31:26.900Z,47.60
2018-03-20T21:33:31.580Z,47.70
2018-03-20T21:35:34.725Z,47.70
2018-03-20T21:37:38.996Z,47.70
2018-03-20T21:39:42.161Z,47.70
2018-03-20T21:41:45.337Z,47.70
2018-03-20T21:43:48.487Z,47.70
2018-03-20T21:45:52.273Z,47.70
2018-03-20T21:47:55.871Z,47.80
2018-03-20T21:49:59.846Z,47.90
2018-03-20T21:52:03.009Z,48.00
2018-03-20T21:54:06.921Z,48.10
2018-03-20T21:56:10.896Z,48.10
2018-03-20T21:58:14.064Z,48.10
2018-03-20T22:00:18.000Z,48.10
2018-03-20T22:02:21.144Z,48.00
2018-03-20T22:04:24.320Z,48.10
2018-03-20T22:06:27.486Z,48.10
2018-03-20T22:08:30.651Z,48.10
2018-03-20T22:10:33.796Z,48.20
2018-03-20T22:12:36.975Z,48.30
2018-03-20T22:14:40.401Z,48.50
2018-03-20T22:16:43.556Z,48.60
2018-03-20T22:18:47.493Z,48.90
2018-03-20T22:20:50.637Z,48.90
2018-03-20T22:22:53.809Z,48.90
2018-03-20T22:24:56.984Z,49.00
2018-03-20T22:27:00.736Z,48.90
2018-03-20T22:29:04.054Z,48.80
2018-03-20T22:31:07.198Z,48.90
2018-03-20T22:33:10.341Z,48.90
2018-03-20T22:35:15.413Z,49.60
2018-03-20T22:37:18.565Z,49.00
2018-03-20T22:39:21.709Z,49.80
2018-03-20T22:41:25.657Z,49.30
2018-03-20T22:43:28.804Z,49.30
2018-03-20T22:45:31.944Z,49.30
2018-03-20T22:47:35.130Z,49.40
2018-03-20T22:49:38.273Z,49.50
2018-03-20T22:51:41.526Z,49.60
2018-03-20T22:53:44.702Z,49.70
2018-03-20T22:55:47.888Z,49.80
2018-03-20T22:57:51.849Z,49.90
2018-03-20T22:59:54.997Z,49.90
2018-03-20T23:01:58.681Z,50.00
2018-03-20T23:04:01.850Z,50.20
2018-03-20T23:06:06.009Z,51.10
2018-03-20T23:08:09.158Z,50.50
2018-03-20T23:10:12.308Z,50.60
2018-03-20T23:12:16.445Z,50.50
2018-03-20T23:14:19.590Z,50.50
2018-03-20T23:16:22.733Z,50.40
2018-03-20T23:18:25.926Z,50.40
2018-03-20T23:20:29.093Z,49.90
2018-03-20T23:22:32.245Z,50.40
2018-03-20T23:24:35.430Z,50.50
2018-03-20T23:26:38.601Z,50.70
2018-03-20T23:28:43.248Z,51.40
2018-03-20T23:30:46.852Z,50.80
2018-03-20T23:32:50.764Z,50.70
2018-03-20T23:34:54.673Z,50.70
2018-03-20T23:36:58.607Z,50.80
2018-03-20T23:39:02.705Z,50.80
2018-03-20T23:41:05.849Z,50.70
2018-03-20T23:43:09.781Z,50.60
2018-03-20T23:45:13.706Z,50.60
2018-03-20T23:47:16.890Z,50.60
2018-03-20T23:49:20.060Z,50.60
2018-03-20T23:51:23.201Z,50.70
2018-03-20T23:53:27.145Z,50.50
2018-03-20T23:55:30.293Z,50.60
2018-03-20T23:57:33.465Z,50.40
2018-03-20T23:59:37.525Z,50.50
